LOWG/GRZ METAR and TAF weather

Enter ICAO airport designator
Station Type Date Time Source
LOWG METAR 2019/12/07 17:20 UTC NOAA

LOWG 071720Z VRB02KT CAVOK M00/M02 Q1018 NOSIG


Station Type Date Time Source
LOWG Decoded METAR 2019/12/07 17:20 UTC NOAA

Graz-Thalerhof-Flughafen, Austria (LOWG) 47-00N 015-26E 347M
Dec 07, 2019 - 12:20 PM EST / 2019.12.07 1720 UTC
Wind: Variable at 2 MPH (2 KT):0
Visibility: greater than 7 mile(s):0
Temperature: 32 F (0 C)
Dew Point: 28 F (-2 C)
Relative Humidity: 86%
Pressure (altimeter): 30.06 in. Hg (1018 hPa)
ob: LOWG 071720Z VRB02KT CAVOK M00/M02 Q1018 NOSIG
cycle: 17

Station Type Date Time Source
LOWG TAF 2019/12/07 18:18 UTC NOAA

TAF TAF LOWG 071715Z 0718/0818 VRB02KT CAVOK TX05/0814Z TNM03/0806Z
TEMPO 0719/0808 0700 FZBCFG NSC PROB30
TEMPO 0722/0807 0300 FZFG VV002

Example: see airport list